createdAt,value
2019-02-24T00:01:20.980Z,68.20
2019-02-24T00:03:47.571Z,63.65
2019-02-24T00:06:15.805Z,61.98
2019-02-24T00:08:42.611Z,61.23
2019-02-24T00:11:09.879Z,57.30
2019-02-24T00:13:36.400Z,60.23
2019-02-24T00:16:02.882Z,61.15
2019-02-24T00:18:29.620Z,63.92
2019-02-24T00:20:56.030Z,63.80
2019-02-24T00:23:22.469Z,68.75
2019-02-24T00:25:48.882Z,62.43
2019-02-24T00:28:15.350Z,59.27
2019-02-24T00:30:41.899Z,60.65
2019-02-24T00:33:08.522Z,56.88
2019-02-24T00:35:34.967Z,61.33
2019-02-24T00:38:01.203Z,58.85
2019-02-24T00:40:27.609Z,61.55
2019-02-24T00:42:54.051Z,62.30
2019-02-24T00:45:20.471Z,60.40
2019-02-24T00:47:46.860Z,61.68
2019-02-24T00:50:13.555Z,62.27
2019-02-24T00:52:39.986Z,64.70
2019-02-24T00:55:06.693Z,61.05
2019-02-24T00:57:33.018Z,57.53
2019-02-24T00:59:59.606Z,57.05
2019-02-24T01:02:26.026Z,53.40
2019-02-24T01:04:52.667Z,49.38
2019-02-24T01:07:19.300Z,49.65
2019-02-24T01:09:45.743Z,49.73
2019-02-24T01:12:12.147Z,46.58
2019-02-24T01:14:38.810Z,46.58
2019-02-24T01:17:05.127Z,44.48
2019-02-24T01:19:31.524Z,42.38
2019-02-24T01:21:57.962Z,44.33
2019-02-24T01:24:24.295Z,41.20
2019-02-24T01:26:51.073Z,41.70
2019-02-24T01:29:17.410Z,39.50
2019-02-24T01:31:43.798Z,36.53
2019-02-24T01:34:10.290Z,35.78
2019-02-24T01:36:36.679Z,34.00
2019-02-24T01:39:03.905Z,33.10
2019-02-24T01:41:30.323Z,30.17
2019-02-24T01:43:56.622Z,33.67
2019-02-24T01:46:23.271Z,32.83
2019-02-24T01:48:49.655Z,40.85
2019-02-24T01:51:16.150Z,48.30
2019-02-24T01:53:42.513Z,32.67
2019-02-24T01:56:08.910Z,30.62
2019-02-24T01:58:35.533Z,29.72
2019-02-24T02:01:02.201Z,27.55
2019-02-24T02:03:28.799Z,31.65
2019-02-24T02:05:55.199Z,33.38
2019-02-24T02:08:21.819Z,33.83
2019-02-24T02:10:48.500Z,30.27
2019-02-24T02:13:15.138Z,30.88
2019-02-24T02:15:41.600Z,29.18
2019-02-24T02:18:07.961Z,30.43
2019-02-24T02:20:34.536Z,27.95
2019-02-24T02:23:00.937Z,29.20
2019-02-24T02:25:27.387Z,27.60
2019-02-24T02:27:53.842Z,27.30
2019-02-24T02:30:20.351Z,29.07
2019-02-24T02:32:46.910Z,30.48
2019-02-24T02:35:13.238Z,31.73
2019-02-24T02:37:39.795Z,36.53
2019-02-24T02:40:07.209Z,37.20
2019-02-24T02:42:33.547Z,37.30
2019-02-24T02:45:00.030Z,38.95
2019-02-24T02:47:26.415Z,39.67
2019-02-24T02:49:52.969Z,41.20
2019-02-24T02:52:19.579Z,39.95
2019-02-24T02:54:45.966Z,39.27
2019-02-24T02:57:12.367Z,40.25
2019-02-24T02:59:38.884Z,40.90
2019-02-24T03:02:05.378Z,39.48
2019-02-24T03:04:31.901Z,41.28
2019-02-24T03:07:18.361Z,40.40
2019-02-24T03:14:37.499Z,35.80
2019-02-24T03:17:04.032Z,37.35
2019-02-24T03:19:30.520Z,38.20
2019-02-24T03:21:56.946Z,37.73
2019-02-24T03:24:23.331Z,38.45
2019-02-24T03:26:50.103Z,37.20
2019-02-24T03:29:16.401Z,37.40
2019-02-24T03:31:42.724Z,35.68
2019-02-24T03:34:09.198Z,36.25
2019-02-24T03:36:35.829Z,35.80
2019-02-24T03:39:02.415Z,35.15
2019-02-24T03:41:28.806Z,34.45
2019-02-24T03:43:55.380Z,35.52
2019-02-24T03:46:21.813Z,35.83
2019-02-24T03:48:48.208Z,41.73
2019-02-24T03:51:14.531Z,36.85
2019-02-24T03:53:40.935Z,34.70
2019-02-24T03:56:07.362Z,34.23
2019-02-24T03:58:33.806Z,36.85
2019-02-24T04:01:00.512Z,38.28
2019-02-24T04:03:27.115Z,42.33
2019-02-24T04:05:53.507Z,44.10
2019-02-24T04:08:20.116Z,47.30
2019-02-24T04:10:46.689Z,51.53
2019-02-24T04:13:13.026Z,52.93
2019-02-24T04:15:39.406Z,51.45
2019-02-24T04:18:05.803Z,52.48
2019-02-24T04:20:32.485Z,51.35
2019-02-24T04:22:58.891Z,53.33
2019-02-24T04:25:25.218Z,49.90
2019-02-24T04:27:51.606Z,47.60
2019-02-24T04:30:18.054Z,41.08
2019-02-24T04:32:44.343Z,41.18
2019-02-24T04:35:10.673Z,43.23
2019-02-24T04:37:37.226Z,45.73
2019-02-24T04:40:06.327Z,47.95
2019-02-24T04:42:32.706Z,46.77
2019-02-24T04:44:59.019Z,46.50
2019-02-24T04:47:25.319Z,47.60
2019-02-24T04:49:51.830Z,45.00
2019-02-24T04:52:18.436Z,46.90
2019-02-24T04:54:44.737Z,47.75
2019-02-24T04:57:11.436Z,44.40
2019-02-24T04:59:38.010Z,44.05
2019-02-24T05:02:04.344Z,43.45
2019-02-24T05:04:30.722Z,47.27
2019-02-24T05:06:57.178Z,45.12
2019-02-24T05:09:23.759Z,47.65
2019-02-24T05:11:50.245Z,44.85
2019-02-24T05:14:16.568Z,46.55
2019-02-24T05:16:43.023Z,43.35
2019-02-24T05:19:09.474Z,46.48
2019-02-24T05:21:35.772Z,44.65
2019-02-24T05:24:02.197Z,45.25
2019-02-24T05:26:28.600Z,45.85
2019-02-24T05:28:54.923Z,44.05
2019-02-24T05:31:21.208Z,45.67
2019-02-24T05:33:47.658Z,44.25
2019-02-24T05:36:14.091Z,43.60
2019-02-24T05:38:40.486Z,44.08
2019-02-24T05:41:06.946Z,42.78
2019-02-24T05:43:33.480Z,43.10
2019-02-24T05:45:59.862Z,42.35
2019-02-24T05:48:26.632Z,42.73
2019-02-24T05:50:53.125Z,43.42
2019-02-24T05:53:19.519Z,41.50
2019-02-24T05:55:46.028Z,43.40
2019-02-24T05:58:12.466Z,44.42
2019-02-24T06:00:38.999Z,46.65
2019-02-24T06:03:05.391Z,47.98
2019-02-24T06:05:31.801Z,51.73
2019-02-24T06:07:58.127Z,55.92
2019-02-24T06:10:24.627Z,59.65
2019-02-24T06:12:51.083Z,61.45
2019-02-24T06:15:17.798Z,65.62
2019-02-24T06:17:44.204Z,65.70
2019-02-24T06:20:10.718Z,64.60
2019-02-24T06:22:37.039Z,63.05
2019-02-24T06:25:04.866Z,57.80
2019-02-24T06:27:31.431Z,61.53
2019-02-24T06:30:04.499Z,49.33
2019-02-24T06:32:26.038Z,51.98
2019-02-24T06:34:52.335Z,46.40
2019-02-24T06:37:18.791Z,41.88
2019-02-24T06:39:45.188Z,40.23
2019-02-24T06:42:11.719Z,41.20
2019-02-24T06:44:38.485Z,39.92
2019-02-24T06:47:05.046Z,39.20
2019-02-24T06:49:31.396Z,39.30
2019-02-24T06:51:57.774Z,40.45
2019-02-24T06:54:24.365Z,38.30
2019-02-24T06:56:50.647Z,48.92
2019-02-24T06:59:17.034Z,65.08
2019-02-24T07:01:43.401Z,63.00
2019-02-24T07:04:09.807Z,62.60
2019-02-24T07:06:36.290Z,58.02
2019-02-24T07:09:03.323Z,54.90
2019-02-24T07:11:29.723Z,55.70
2019-02-24T07:13:56.029Z,59.13
2019-02-24T07:16:22.306Z,57.95
2019-02-24T07:18:50.488Z,62.88
2019-02-24T07:21:16.962Z,60.30
2019-02-24T07:23:43.450Z,57.53
2019-02-24T07:26:09.780Z,51.77
2019-02-24T07:28:36.590Z,60.05
2019-02-24T07:31:03.018Z,56.53
2019-02-24T07:33:29.304Z,56.88
2019-02-24T07:35:55.819Z,57.10
2019-02-24T07:38:22.106Z,52.65
2019-02-24T07:40:48.426Z,53.50
2019-02-24T07:43:14.717Z,52.95
2019-02-24T07:45:41.151Z,43.48
2019-02-24T07:48:07.547Z,49.45
2019-02-24T07:50:33.935Z,45.15
2019-02-24T07:53:00.401Z,40.98
2019-02-24T07:55:26.768Z,46.95
2019-02-24T07:57:53.175Z,45.90
2019-02-24T08:00:19.597Z,46.83
2019-02-24T08:02:45.917Z,49.63
2019-02-24T08:05:12.374Z,48.00
2019-02-24T08:07:38.828Z,61.55
2019-02-24T08:10:06.498Z,67.85
2019-02-24T08:12:33.237Z,74.80
2019-02-24T08:14:59.637Z,74.62
2019-02-24T08:17:25.979Z,67.30
2019-02-24T08:19:52.435Z,72.87
2019-02-24T08:22:18.867Z,63.85
2019-02-24T08:24:45.358Z,66.37
2019-02-24T08:27:11.726Z,69.77
2019-02-24T08:29:38.090Z,68.20
2019-02-24T08:32:04.620Z,67.30
2019-02-24T08:34:30.988Z,66.45
2019-02-24T08:36:57.614Z,61.88
2019-02-24T08:39:23.933Z,56.77
2019-02-24T08:41:50.261Z,51.92
2019-02-24T08:44:16.545Z,51.28
2019-02-24T08:46:42.975Z,50.75
2019-02-24T08:49:09.363Z,49.90
2019-02-24T08:51:36.261Z,46.90
2019-02-24T08:54:02.648Z,43.48
2019-02-24T08:56:29.090Z,44.75
2019-02-24T08:58:55.458Z,44.60
2019-02-24T09:01:22.031Z,44.48
2019-02-24T09:03:48.502Z,51.45
2019-02-24T09:06:14.827Z,85.40
2019-02-24T09:08:41.220Z,68.50
2019-02-24T09:11:07.589Z,71.30
2019-02-24T09:13:33.881Z,67.75
2019-02-24T09:16:00.303Z,65.90
2019-02-24T09:18:26.704Z,63.75
2019-02-24T09:20:53.173Z,62.05
2019-02-24T09:23:19.608Z,59.25
2019-02-24T09:25:46.279Z,55.63
2019-02-24T09:28:12.581Z,60.60
2019-02-24T09:30:38.879Z,65.22
2019-02-24T09:33:05.313Z,63.95
2019-02-24T09:35:31.703Z,61.65
2019-02-24T09:37:57.998Z,64.25
2019-02-24T09:40:24.434Z,51.18
2019-02-24T09:42:50.871Z,46.48
2019-02-24T09:45:17.182Z,51.60
2019-02-24T09:47:46.645Z,57.25
2019-02-24T09:50:11.958Z,60.55
2019-02-24T09:52:38.367Z,62.10
2019-02-24T09:55:08.423Z,64.47
2019-02-24T09:57:36.931Z,57.40
2019-02-24T10:00:12.449Z,46.20
2019-02-24T10:02:39.070Z,44.58
2019-02-24T10:05:05.877Z,50.00
2019-02-24T10:07:32.274Z,49.10
2019-02-24T10:09:58.855Z,46.88
2019-02-24T10:12:25.430Z,45.38
2019-02-24T10:14:51.927Z,44.48
2019-02-24T10:17:18.603Z,44.88
2019-02-24T10:19:44.923Z,49.03
2019-02-24T10:22:11.378Z,43.20
2019-02-24T10:24:38.061Z,46.45
2019-02-24T10:27:04.345Z,47.65
2019-02-24T10:29:30.781Z,44.88
2019-02-24T10:31:57.174Z,54.27
2019-02-24T10:34:23.535Z,63.60
2019-02-24T10:36:50.082Z,64.53
2019-02-24T10:39:16.618Z,98.25
2019-02-24T10:41:43.054Z,93.05
2019-02-24T10:44:09.456Z,87.75
2019-02-24T10:46:35.861Z,80.83
2019-02-24T10:49:03.618Z,64.70
2019-02-24T10:51:30.279Z,61.48
2019-02-24T10:53:56.571Z,62.33
2019-02-24T10:56:23.019Z,56.50
2019-02-24T10:58:49.718Z,99.17
2019-02-24T11:01:16.117Z,57.83
2019-02-24T11:03:42.646Z,77.70
2019-02-24T11:06:08.931Z,59.75
2019-02-24T11:08:35.496Z,53.52
2019-02-24T11:11:01.991Z,52.93
2019-02-24T11:13:28.487Z,52.27
2019-02-24T11:15:54.784Z,52.30
2019-02-24T11:18:21.282Z,55.45
2019-02-24T11:20:47.669Z,59.90
2019-02-24T11:23:14.036Z,61.68
2019-02-24T11:25:40.451Z,66.02
2019-02-24T11:28:06.942Z,66.72
2019-02-24T11:30:33.274Z,64.67
2019-02-24T11:32:59.628Z,68.28
2019-02-24T11:35:26.210Z,65.05
2019-02-24T11:37:52.626Z,58.52
2019-02-24T11:40:19.025Z,62.70
2019-02-24T11:42:45.441Z,60.67
2019-02-24T11:45:11.963Z,63.63
2019-02-24T11:47:38.374Z,61.98
2019-02-24T11:50:10.634Z,60.10
2019-02-24T11:52:37.046Z,72.58
2019-02-24T11:55:04.871Z,63.42
2019-02-24T11:57:31.190Z,60.05
2019-02-24T11:59:57.710Z,56.13
2019-02-24T12:02:24.109Z,50.85
2019-02-24T12:04:50.556Z,66.15
2019-02-24T12:07:16.942Z,65.50
2019-02-24T12:09:43.337Z,61.45
2019-02-24T12:12:09.792Z,62.25
2019-02-24T12:14:36.232Z,57.43
2019-02-24T12:17:02.538Z,58.52
2019-02-24T12:19:28.933Z,56.08
2019-02-24T12:21:55.275Z,56.68
2019-02-24T12:24:21.634Z,51.18
2019-02-24T12:26:48.285Z,48.68
2019-02-24T12:29:14.680Z,51.42
2019-02-24T12:31:41.115Z,54.50
2019-02-24T12:34:07.402Z,58.65
2019-02-24T12:36:33.826Z,55.58
2019-02-24T12:39:00.191Z,55.45
2019-02-24T12:41:26.745Z,54.35
2019-02-24T12:43:53.293Z,56.68
2019-02-24T12:46:20.205Z,57.33
2019-02-24T12:48:46.773Z,51.53
2019-02-24T12:51:13.161Z,54.40
2019-02-24T12:53:39.657Z,52.43
2019-02-24T12:56:06.046Z,50.03
2019-02-24T12:58:32.405Z,48.85
2019-02-24T13:00:58.869Z,51.65
2019-02-24T13:03:25.399Z,53.20
2019-02-24T13:05:59.430Z,48.98
2019-02-24T13:08:25.771Z,52.93
2019-02-24T13:10:52.178Z,52.17
2019-02-24T13:13:18.558Z,48.98
2019-02-24T13:15:44.936Z,50.52
2019-02-24T13:18:11.544Z,47.67
2019-02-24T13:20:38.046Z,48.73
2019-02-24T13:23:04.354Z,54.38
2019-02-24T13:25:30.741Z,56.95
2019-02-24T13:27:57.266Z,53.78
2019-02-24T13:30:23.755Z,51.08
2019-02-24T13:32:50.118Z,56.15
2019-02-24T13:35:16.416Z,56.88
2019-02-24T13:37:42.943Z,55.63
2019-02-24T13:40:13.843Z,56.55
2019-02-24T13:42:40.346Z,52.03
2019-02-24T13:45:16.136Z,54.50
2019-02-24T13:47:42.449Z,55.63
2019-02-24T13:50:09.054Z,59.35
2019-02-24T13:52:35.580Z,44.13
2019-02-24T13:55:02.583Z,49.30
2019-02-24T13:57:28.910Z,51.30
2019-02-24T13:59:55.290Z,44.30
2019-02-24T14:02:24.128Z,49.83
2019-02-24T14:04:49.970Z,40.85
2019-02-24T14:07:16.474Z,48.02
2019-02-24T14:09:42.768Z,56.00
2019-02-24T14:12:09.123Z,49.83
2019-02-24T14:14:35.582Z,31.48
2019-02-24T14:17:02.147Z,27.73
2019-02-24T14:19:28.636Z,30.17
2019-02-24T14:21:55.083Z,34.60
2019-02-24T14:24:21.512Z,42.75
2019-02-24T14:26:47.936Z,46.40
2019-02-24T14:29:14.288Z,45.52
2019-02-24T14:31:40.725Z,47.30
2019-02-24T14:34:07.115Z,52.17
2019-02-24T14:36:33.939Z,34.38
2019-02-24T14:39:00.251Z,38.20
2019-02-24T14:41:26.586Z,30.52
2019-02-24T14:43:53.080Z,32.05
2019-02-24T14:46:19.545Z,37.80
2019-02-24T14:48:45.945Z,47.62
2019-02-24T14:51:12.587Z,37.08
2019-02-24T14:53:39.057Z,39.90
2019-02-24T14:56:05.353Z,31.30
2019-02-24T14:58:33.744Z,19.87
2019-02-24T15:01:00.842Z,20.75
2019-02-24T15:03:27.599Z,28.00
2019-02-24T15:05:54.062Z,26.85
2019-02-24T15:08:20.373Z,31.93
2019-02-24T15:10:48.248Z,39.10
2019-02-24T15:13:14.990Z,39.80
2019-02-24T15:15:41.281Z,40.17
2019-02-24T15:18:07.720Z,41.73
2019-02-24T15:20:34.290Z,39.67
2019-02-24T15:23:00.584Z,35.40
2019-02-24T15:25:26.990Z,37.38
2019-02-24T15:27:53.378Z,37.70
2019-02-24T15:30:33.370Z,33.45
2019-02-24T15:32:59.892Z,30.90
2019-02-24T15:35:26.662Z,31.35
2019-02-24T15:37:53.098Z,31.23
2019-02-24T15:40:19.675Z,31.45
2019-02-24T15:42:46.414Z,32.95
2019-02-24T15:45:12.796Z,32.13
2019-02-24T15:47:39.142Z,33.78
2019-02-24T15:50:10.923Z,35.48
2019-02-24T15:52:37.296Z,34.33
2019-02-24T15:55:07.624Z,31.45
2019-02-24T15:57:34.125Z,31.90
2019-02-24T16:00:00.468Z,30.65
2019-02-24T16:02:28.595Z,29.72
2019-02-24T16:04:55.184Z,30.88
2019-02-24T16:07:21.702Z,29.55
2019-02-24T16:09:48.135Z,28.70
2019-02-24T16:12:14.594Z,30.77
2019-02-24T16:14:41.138Z,30.82
2019-02-24T16:17:07.658Z,30.20
2019-02-24T16:19:34.059Z,32.10
2019-02-24T16:22:00.663Z,33.08
2019-02-24T16:24:27.067Z,30.52
2019-02-24T16:26:53.394Z,33.98
2019-02-24T16:29:19.737Z,35.20
2019-02-24T16:31:46.294Z,34.40
2019-02-24T16:34:12.666Z,38.25
2019-02-24T16:36:39.056Z,42.33
2019-02-24T16:39:05.691Z,42.17
2019-02-24T16:41:31.984Z,42.98
2019-02-24T16:43:58.335Z,36.50
2019-02-24T16:46:24.629Z,42.62
2019-02-24T16:48:51.302Z,45.10
2019-02-24T16:51:17.692Z,56.08
2019-02-24T16:53:44.268Z,54.80
2019-02-24T16:56:10.597Z,59.93
2019-02-24T16:58:36.915Z,65.08
2019-02-24T17:01:03.420Z,62.85
2019-02-24T17:03:29.966Z,61.15
2019-02-24T17:05:56.678Z,71.67
2019-02-24T17:08:23.123Z,69.77
2019-02-24T17:11:12.717Z,63.05
2019-02-24T17:13:48.698Z,58.95
2019-02-24T17:18:41.439Z,56.77
2019-02-24T17:21:07.724Z,57.40
2019-02-24T17:23:34.369Z,56.33
2019-02-24T17:26:00.690Z,55.33
2019-02-24T17:28:27.266Z,60.00
2019-02-24T17:30:54.142Z,60.98
2019-02-24T17:33:29.524Z,59.53
2019-02-24T17:35:48.797Z,63.17
2019-02-24T17:38:15.503Z,75.65
2019-02-24T17:40:41.856Z,77.72
2019-02-24T17:43:08.255Z,82.02
2019-02-24T17:45:34.698Z,88.20
2019-02-24T17:48:00.984Z,87.25
2019-02-24T17:50:27.711Z,83.33
2019-02-24T17:52:54.054Z,102.50
2019-02-24T17:55:20.661Z,101.70
2019-02-24T17:57:47.234Z,91.97
2019-02-24T18:00:31.976Z,82.35
2019-02-24T18:02:58.868Z,85.38
2019-02-24T18:05:25.265Z,80.35
2019-02-24T18:07:51.738Z,86.82
2019-02-24T18:10:18.323Z,92.90
2019-02-24T18:12:44.930Z,98.10
2019-02-24T18:15:11.761Z,116.60
2019-02-24T18:17:38.334Z,177.47
2019-02-24T18:20:09.335Z,147.90
2019-02-24T18:22:35.787Z,153.15
2019-02-24T18:25:03.850Z,197.35
2019-02-24T18:27:30.240Z,211.05
2019-02-24T18:29:56.849Z,199.32
2019-02-24T18:32:23.607Z,220.42
2019-02-24T18:34:50.036Z,215.75
2019-02-24T18:37:16.478Z,205.67
2019-02-24T18:39:43.110Z,232.03
2019-02-24T18:42:09.442Z,205.95
2019-02-24T18:44:36.037Z,148.72
2019-02-24T18:47:02.586Z,161.90
2019-02-24T18:49:29.362Z,184.80
2019-02-24T18:51:55.802Z,153.35
2019-02-24T18:54:22.443Z,138.18
2019-02-24T18:56:49.211Z,167.18
2019-02-24T18:59:15.691Z,166.07
2019-02-24T19:01:42.132Z,152.20
2019-02-24T19:04:08.759Z,149.82
2019-02-24T19:06:39.110Z,152.85
2019-02-24T19:09:04.124Z,140.88
2019-02-24T19:11:30.466Z,141.32
2019-02-24T19:13:56.775Z,121.17
2019-02-24T19:16:23.204Z,116.33
2019-02-24T19:18:49.704Z,127.82
2019-02-24T19:21:16.122Z,130.87
2019-02-24T19:23:45.104Z,151.97
2019-02-24T19:26:11.409Z,182.88
2019-02-24T19:28:37.922Z,183.30
2019-02-24T19:31:04.376Z,222.95
2019-02-24T19:33:30.793Z,190.47
2019-02-24T19:35:57.133Z,179.40
2019-02-24T19:38:23.520Z,179.53
2019-02-24T19:40:50.037Z,173.20
2019-02-24T19:43:16.498Z,154.18
2019-02-24T19:45:43.003Z,174.30
2019-02-24T19:48:09.437Z,174.75
2019-02-24T19:50:35.873Z,177.43
2019-02-24T19:53:02.204Z,139.88
2019-02-24T19:55:28.612Z,146.20
2019-02-24T19:57:55.015Z,155.37
2019-02-24T20:00:25.449Z,147.82
2019-02-24T20:02:52.068Z,144.72
2019-02-24T20:05:19.174Z,159.03
2019-02-24T20:07:46.574Z,165.37
2019-02-24T20:10:25.293Z,158.87
2019-02-24T20:12:51.930Z,165.47
2019-02-24T20:15:18.337Z,162.07
2019-02-24T20:17:44.896Z,147.00
2019-02-24T20:20:15.512Z,144.35
2019-02-24T20:22:41.922Z,142.90
2019-02-24T20:25:17.111Z,144.20
2019-02-24T20:27:43.651Z,175.85
2019-02-24T20:30:23.066Z,164.72
2019-02-24T20:32:49.609Z,150.60
2019-02-24T20:35:15.917Z,109.80
2019-02-24T20:37:42.450Z,112.85
2019-02-24T20:40:10.856Z,119.55
2019-02-24T20:42:37.293Z,111.62
2019-02-24T20:45:08.834Z,100.07
2019-02-24T20:47:35.803Z,94.52
2019-02-24T20:50:06.297Z,92.78
2019-02-24T20:52:32.714Z,86.65
2019-02-24T20:54:59.128Z,84.15
2019-02-24T20:57:25.472Z,85.38
2019-02-24T20:59:51.753Z,88.72
2019-02-24T21:02:18.325Z,80.92
2019-02-24T21:04:44.638Z,67.50
2019-02-24T21:07:11.023Z,76.92
2019-02-24T21:09:37.610Z,89.07
2019-02-24T21:12:04.312Z,62.17
2019-02-24T21:14:30.972Z,67.47
2019-02-24T21:16:57.741Z,78.33
2019-02-24T21:19:24.066Z,79.22
2019-02-24T21:21:50.661Z,85.20
2019-02-24T21:24:17.116Z,119.50
2019-02-24T21:26:43.439Z,101.35
2019-02-24T21:29:10.056Z,104.20
2019-02-24T21:31:36.599Z,110.17
2019-02-24T21:34:02.946Z,101.38
2019-02-24T21:36:29.528Z,106.40
2019-02-24T21:38:56.038Z,103.20
2019-02-24T21:41:22.453Z,95.35
2019-02-24T21:43:49.062Z,97.42
2019-02-24T21:46:15.596Z,99.90
2019-02-24T21:48:42.008Z,87.82
2019-02-24T21:51:08.440Z,95.17
2019-02-24T21:53:34.748Z,85.40
2019-02-24T21:56:01.078Z,83.30
2019-02-24T21:58:27.369Z,81.30
2019-02-24T22:00:53.711Z,85.22
2019-02-24T22:03:20.221Z,81.90
2019-02-24T22:05:46.637Z,74.87
2019-02-24T22:08:12.949Z,77.87
2019-02-24T22:10:39.267Z,74.95
2019-02-24T22:13:05.680Z,72.42
2019-02-24T22:15:32.197Z,77.25
2019-02-24T22:17:58.676Z,84.35
2019-02-24T22:20:25.121Z,84.92
2019-02-24T22:22:51.693Z,87.95
2019-02-24T22:25:18.183Z,85.00
2019-02-24T22:27:44.532Z,88.52
2019-02-24T22:30:14.268Z,88.15
2019-02-24T22:32:40.662Z,91.55
2019-02-24T22:35:08.253Z,89.67
2019-02-24T22:37:34.645Z,95.45
2019-02-24T22:40:01.099Z,114.82
2019-02-24T22:42:27.402Z,92.15
2019-02-24T22:44:53.748Z,96.47
2019-02-24T22:47:20.034Z,96.28
2019-02-24T22:49:46.390Z,89.87
2019-02-24T22:52:12.691Z,90.55
2019-02-24T22:54:39.205Z,87.55
2019-02-24T22:57:05.799Z,84.92
2019-02-24T22:59:32.315Z,88.42
2019-02-24T23:01:58.638Z,85.97
2019-02-24T23:04:24.979Z,79.87
2019-02-24T23:06:51.401Z,84.50
2019-02-24T23:09:18.821Z,85.45
2019-02-24T23:11:45.313Z,85.28
2019-02-24T23:14:11.711Z,90.38
2019-02-24T23:16:38.330Z,83.90
2019-02-24T23:19:04.824Z,81.28
2019-02-24T23:21:31.280Z,89.47
2019-02-24T23:23:57.939Z,86.97
2019-02-24T23:26:24.329Z,83.65
2019-02-24T23:28:50.637Z,94.28
2019-02-24T23:31:16.951Z,91.72
2019-02-24T23:33:43.399Z,87.70
2019-02-24T23:36:09.789Z,94.50
2019-02-24T23:38:36.367Z,84.92
2019-02-24T23:41:02.723Z,74.50
2019-02-24T23:43:30.671Z,83.97
2019-02-24T23:45:57.430Z,75.28
2019-02-24T23:48:23.864Z,73.20
2019-02-24T23:50:50.328Z,80.95
2019-02-24T23:53:16.979Z,74.03
2019-02-24T23:55:43.368Z,73.00
2019-02-24T23:58:09.860Z,75.12
